sensor_id;sensor_type;location;lat;lon;timestamp;P1;durP1;ratioP1;P2;durP2;ratioP2
12925;SDS011;6529;50.566;9.774;2023-04-01T00:02:16;4.40;;;1.33;;
12925;SDS011;6529;50.566;9.774;2023-04-01T00:04:42;3.97;;;1.43;;
12925;SDS011;6529;50.566;9.774;2023-04-01T00:07:08;3.97;;;1.60;;
12925;SDS011;6529;50.566;9.774;2023-04-01T00:09:33;3.60;;;1.40;;
12925;SDS011;6529;50.566;9.774;2023-04-01T00:12:00;3.77;;;1.57;;
12925;SDS011;6529;50.566;9.774;2023-04-01T00:14:26;5.43;;;1.40;;
12925;SDS011;6529;50.566;9.774;2023-04-01T00:16:51;3.50;;;1.40;;
12925;SDS011;6529;50.566;9.774;2023-04-01T00:19:17;4.47;;;1.63;;
12925;SDS011;6529;50.566;9.774;2023-04-01T00:21:43;2.47;;;1.33;;
12925;SDS011;6529;50.566;9.774;2023-04-01T00:24:09;4.17;;;1.53;;
12925;SDS011;6529;50.566;9.774;2023-04-01T00:26:35;3.87;;;1.60;;
12925;SDS011;6529;50.566;9.774;2023-04-01T00:29:01;3.50;;;1.50;;
12925;SDS011;6529;50.566;9.774;2023-04-01T00:31:27;4.27;;;1.37;;
12925;SDS011;6529;50.566;9.774;2023-04-01T00:33:52;4.80;;;1.80;;
12925;SDS011;6529;50.566;9.774;2023-04-01T00:36:19;4.93;;;1.60;;
12925;SDS011;6529;50.566;9.774;2023-04-01T00:38:49;2.60;;;1.40;;
12925;SDS011;6529;50.566;9.774;2023-04-01T00:41:15;5.63;;;1.43;;
12925;SDS011;6529;50.566;9.774;2023-04-01T00:43:46;5.57;;;1.80;;
12925;SDS011;6529;50.566;9.774;2023-04-01T00:46:13;4.53;;;1.83;;
12925;SDS011;6529;50.566;9.774;2023-04-01T00:48:40;3.57;;;1.33;;
12925;SDS011;6529;50.566;9.774;2023-04-01T00:51:09;5.17;;;1.70;;
12925;SDS011;6529;50.566;9.774;2023-04-01T00:53:40;3.80;;;1.60;;
12925;SDS011;6529;50.566;9.774;2023-04-01T00:56:12;2.87;;;1.30;;
12925;SDS011;6529;50.566;9.774;2023-04-01T00:58:42;1.70;;;1.27;;
12925;SDS011;6529;50.566;9.774;2023-04-01T01:01:11;6.13;;;1.30;;
12925;SDS011;6529;50.566;9.774;2023-04-01T01:03:37;3.20;;;1.50;;
12925;SDS011;6529;50.566;9.774;2023-04-01T01:14:14;2.17;;;1.60;;
12925;SDS011;6529;50.566;9.774;2023-04-01T01:16:45;4.73;;;1.50;;
12925;SDS011;6529;50.566;9.774;2023-04-01T01:19:25;3.03;;;1.40;;
12925;SDS011;6529;50.566;9.774;2023-04-01T01:22:06;6.97;;;1.60;;
12925;SDS011;6529;50.566;9.774;2023-04-01T01:27:19;6.87;;;2.03;;
12925;SDS011;6529;50.566;9.774;2023-04-01T01:35:31;3.07;;;1.40;;
12925;SDS011;6529;50.566;9.774;2023-04-01T01:38:21;4.03;;;1.60;;
12925;SDS011;6529;50.566;9.774;2023-04-01T01:40:51;3.13;;;1.53;;
12925;SDS011;6529;50.566;9.774;2023-04-01T01:43:24;3.23;;;1.60;;
12925;SDS011;6529;50.566;9.774;2023-04-01T01:45:55;3.70;;;1.30;;
12925;SDS011;6529;50.566;9.774;2023-04-01T01:48:24;2.63;;;1.60;;
12925;SDS011;6529;50.566;9.774;2023-04-01T01:50:52;3.10;;;1.57;;
12925;SDS011;6529;50.566;9.774;2023-04-01T01:53:18;6.37;;;1.80;;
12925;SDS011;6529;50.566;9.774;2023-04-01T01:55:45;4.70;;;1.70;;
12925;SDS011;6529;50.566;9.774;2023-04-01T01:58:25;3.53;;;1.43;;
12925;SDS011;6529;50.566;9.774;2023-04-01T02:01:06;3.87;;;1.60;;
12925;SDS011;6529;50.566;9.774;2023-04-01T02:03:36;1.83;;;1.30;;
12925;SDS011;6529;50.566;9.774;2023-04-01T02:06:05;3.07;;;1.40;;
12925;SDS011;6529;50.566;9.774;2023-04-01T02:08:39;5.67;;;1.40;;
12925;SDS011;6529;50.566;9.774;2023-04-01T02:11:27;3.23;;;1.40;;
12925;SDS011;6529;50.566;9.774;2023-04-01T02:14:04;4.13;;;1.53;;
12925;SDS011;6529;50.566;9.774;2023-04-01T02:16:35;2.60;;;1.23;;
12925;SDS011;6529;50.566;9.774;2023-04-01T02:19:11;3.30;;;1.60;;
12925;SDS011;6529;50.566;9.774;2023-04-01T02:21:39;3.00;;;1.37;;
12925;SDS011;6529;50.566;9.774;2023-04-01T02:24:06;4.00;;;1.50;;
12925;SDS011;6529;50.566;9.774;2023-04-01T02:26:37;4.03;;;1.30;;
12925;SDS011;6529;50.566;9.774;2023-04-01T02:29:03;3.93;;;1.30;;
12925;SDS011;6529;50.566;9.774;2023-04-01T02:31:32;3.37;;;1.30;;
12925;SDS011;6529;50.566;9.774;2023-04-01T02:33:58;4.03;;;1.27;;
12925;SDS011;6529;50.566;9.774;2023-04-01T02:36:24;2.93;;;1.20;;
12925;SDS011;6529;50.566;9.774;2023-04-01T02:38:49;3.87;;;1.40;;
12925;SDS011;6529;50.566;9.774;2023-04-01T02:41:17;5.10;;;1.50;;
12925;SDS011;6529;50.566;9.774;2023-04-01T02:43:43;4.90;;;1.37;;
12925;SDS011;6529;50.566;9.774;2023-04-01T02:46:08;5.60;;;1.50;;
12925;SDS011;6529;50.566;9.774;2023-04-01T02:48:34;3.23;;;1.20;;
12925;SDS011;6529;50.566;9.774;2023-04-01T02:50:59;2.93;;;1.20;;
12925;SDS011;6529;50.566;9.774;2023-04-01T02:53:25;3.30;;;1.23;;
12925;SDS011;6529;50.566;9.774;2023-04-01T02:55:51;3.40;;;1.20;;
12925;SDS011;6529;50.566;9.774;2023-04-01T02:58:17;3.10;;;1.30;;
12925;SDS011;6529;50.566;9.774;2023-04-01T03:00:43;3.70;;;1.20;;
12925;SDS011;6529;50.566;9.774;2023-04-01T03:03:09;3.37;;;1.30;;
12925;SDS011;6529;50.566;9.774;2023-04-01T03:05:35;3.23;;;1.30;;
12925;SDS011;6529;50.566;9.774;2023-04-01T03:08:01;2.10;;;1.30;;
12925;SDS011;6529;50.566;9.774;2023-04-01T03:10:27;3.20;;;1.40;;
12925;SDS011;6529;50.566;9.774;2023-04-01T03:12:53;4.10;;;1.53;;
12925;SDS011;6529;50.566;9.774;2023-04-01T03:15:18;2.73;;;1.50;;
12925;SDS011;6529;50.566;9.774;2023-04-01T03:17:44;3.27;;;1.30;;
12925;SDS011;6529;50.566;9.774;2023-04-01T03:20:11;2.10;;;1.13;;
12925;SDS011;6529;50.566;9.774;2023-04-01T03:22:37;4.10;;;1.43;;
12925;SDS011;6529;50.566;9.774;2023-04-01T03:25:04;2.63;;;1.20;;
12925;SDS011;6529;50.566;9.774;2023-04-01T03:27:30;2.83;;;1.27;;
12925;SDS011;6529;50.566;9.774;2023-04-01T03:29:56;4.23;;;1.20;;
12925;SDS011;6529;50.566;9.774;2023-04-01T03:32:21;3.13;;;1.50;;
12925;SDS011;6529;50.566;9.774;2023-04-01T03:34:47;3.30;;;1.30;;
12925;SDS011;6529;50.566;9.774;2023-04-01T03:37:13;4.13;;;1.40;;
12925;SDS011;6529;50.566;9.774;2023-04-01T03:39:39;2.50;;;1.10;;
12925;SDS011;6529;50.566;9.774;2023-04-01T03:42:04;3.30;;;1.13;;
12925;SDS011;6529;50.566;9.774;2023-04-01T03:44:31;3.70;;;1.30;;
12925;SDS011;6529;50.566;9.774;2023-04-01T03:47:00;4.40;;;1.43;;
12925;SDS011;6529;50.566;9.774;2023-04-01T03:49:26;3.90;;;1.53;;
12925;SDS011;6529;50.566;9.774;2023-04-01T03:51:52;3.70;;;1.47;;
12925;SDS011;6529;50.566;9.774;2023-04-01T03:54:17;4.00;;;1.40;;
12925;SDS011;6529;50.566;9.774;2023-04-01T03:56:45;1.40;;;1.03;;
12925;SDS011;6529;50.566;9.774;2023-04-01T03:59:11;4.67;;;1.40;;
12925;SDS011;6529;50.566;9.774;2023-04-01T04:01:37;3.73;;;1.37;;
12925;SDS011;6529;50.566;9.774;2023-04-01T04:04:02;2.97;;;1.17;;
12925;SDS011;6529;50.566;9.774;2023-04-01T04:06:28;4.23;;;1.30;;
12925;SDS011;6529;50.566;9.774;2023-04-01T04:08:54;2.97;;;1.10;;
12925;SDS011;6529;50.566;9.774;2023-04-01T04:11:20;1.80;;;1.20;;
12925;SDS011;6529;50.566;9.774;2023-04-01T04:13:47;2.97;;;1.30;;
12925;SDS011;6529;50.566;9.774;2023-04-01T04:16:13;2.30;;;1.30;;
12925;SDS011;6529;50.566;9.774;2023-04-01T04:18:38;2.23;;;1.10;;
12925;SDS011;6529;50.566;9.774;2023-04-01T04:21:04;4.07;;;1.23;;
12925;SDS011;6529;50.566;9.774;2023-04-01T04:23:30;2.70;;;1.03;;
12925;SDS011;6529;50.566;9.774;2023-04-01T04:28:29;3.43;;;1.40;;
12925;SDS011;6529;50.566;9.774;2023-04-01T04:30:55;2.63;;;1.57;;
12925;SDS011;6529;50.566;9.774;2023-04-01T04:33:21;3.33;;;1.00;;
12925;SDS011;6529;50.566;9.774;2023-04-01T04:35:47;2.20;;;1.20;;
12925;SDS011;6529;50.566;9.774;2023-04-01T04:38:13;1.60;;;1.10;;
12925;SDS011;6529;50.566;9.774;2023-04-01T04:40:39;2.80;;;1.20;;
12925;SDS011;6529;50.566;9.774;2023-04-01T04:43:06;2.90;;;0.93;;
12925;SDS011;6529;50.566;9.774;2023-04-01T04:45:32;2.23;;;1.17;;
12925;SDS011;6529;50.566;9.774;2023-04-01T04:47:58;1.20;;;1.10;;
12925;SDS011;6529;50.566;9.774;2023-04-01T04:50:23;1.77;;;1.03;;
12925;SDS011;6529;50.566;9.774;2023-04-01T04:52:50;3.50;;;1.27;;
12925;SDS011;6529;50.566;9.774;2023-04-01T04:55:16;2.57;;;1.17;;
12925;SDS011;6529;50.566;9.774;2023-04-01T04:57:42;2.23;;;1.40;;
12925;SDS011;6529;50.566;9.774;2023-04-01T05:00:08;3.37;;;1.30;;
12925;SDS011;6529;50.566;9.774;2023-04-01T05:02:35;2.57;;;1.20;;
12925;SDS011;6529;50.566;9.774;2023-04-01T05:05:00;1.93;;;1.27;;
12925;SDS011;6529;50.566;9.774;2023-04-01T05:07:26;2.97;;;1.33;;
12925;SDS011;6529;50.566;9.774;2023-04-01T05:09:52;2.00;;;1.20;;
12925;SDS011;6529;50.566;9.774;2023-04-01T05:12:17;3.53;;;1.30;;
12925;SDS011;6529;50.566;9.774;2023-04-01T05:14:44;2.20;;;1.27;;
12925;SDS011;6529;50.566;9.774;2023-04-01T05:17:10;5.73;;;1.60;;
12925;SDS011;6529;50.566;9.774;2023-04-01T05:19:37;4.10;;;1.37;;
12925;SDS011;6529;50.566;9.774;2023-04-01T05:22:03;1.60;;;1.03;;
12925;SDS011;6529;50.566;9.774;2023-04-01T05:24:29;2.93;;;1.20;;
12925;SDS011;6529;50.566;9.774;2023-04-01T05:26:55;2.10;;;1.00;;
12925;SDS011;6529;50.566;9.774;2023-04-01T05:29:22;3.27;;;1.13;;
12925;SDS011;6529;50.566;9.774;2023-04-01T05:31:48;3.10;;;1.27;;
12925;SDS011;6529;50.566;9.774;2023-04-01T05:34:14;3.27;;;1.40;;
12925;SDS011;6529;50.566;9.774;2023-04-01T05:36:40;2.90;;;1.10;;
12925;SDS011;6529;50.566;9.774;2023-04-01T05:39:06;2.53;;;1.10;;
12925;SDS011;6529;50.566;9.774;2023-04-01T05:41:34;3.57;;;1.20;;
12925;SDS011;6529;50.566;9.774;2023-04-01T05:44:00;4.50;;;1.43;;
12925;SDS011;6529;50.566;9.774;2023-04-01T05:46:26;3.90;;;1.20;;
12925;SDS011;6529;50.566;9.774;2023-04-01T05:48:52;2.80;;;1.00;;
12925;SDS011;6529;50.566;9.774;2023-04-01T05:51:17;3.50;;;1.10;;
12925;SDS011;6529;50.566;9.774;2023-04-01T05:53:43;3.43;;;1.07;;
12925;SDS011;6529;50.566;9.774;2023-04-01T05:56:08;2.23;;;1.20;;
12925;SDS011;6529;50.566;9.774;2023-04-01T05:58:35;2.50;;;1.20;;
12925;SDS011;6529;50.566;9.774;2023-04-01T06:01:05;4.03;;;1.23;;
12925;SDS011;6529;50.566;9.774;2023-04-01T06:03:32;2.67;;;1.00;;
12925;SDS011;6529;50.566;9.774;2023-04-01T06:05:58;2.83;;;1.30;;
12925;SDS011;6529;50.566;9.774;2023-04-01T06:08:24;2.23;;;1.20;;
12925;SDS011;6529;50.566;9.774;2023-04-01T06:13:51;1.10;;;1.00;;
12925;SDS011;6529;50.566;9.774;2023-04-01T06:19:12;1.83;;;1.07;;
12925;SDS011;6529;50.566;9.774;2023-04-01T06:22:19;3.03;;;1.30;;
12925;SDS011;6529;50.566;9.774;2023-04-01T06:27:40;1.93;;;1.20;;
12925;SDS011;6529;50.566;9.774;2023-04-01T06:33:02;2.97;;;1.33;;
12925;SDS011;6529;50.566;9.774;2023-04-01T06:47:02;2.17;;;1.07;;
12925;SDS011;6529;50.566;9.774;2023-04-01T06:52:00;2.50;;;1.10;;
12925;SDS011;6529;50.566;9.774;2023-04-01T06:54:39;3.33;;;1.20;;
12925;SDS011;6529;50.566;9.774;2023-04-01T07:00:04;1.07;;;0.90;;
12925;SDS011;6529;50.566;9.774;2023-04-01T07:02:53;2.33;;;1.10;;
12925;SDS011;6529;50.566;9.774;2023-04-01T07:05:34;3.23;;;1.30;;
12925;SDS011;6529;50.566;9.774;2023-04-01T07:08:08;2.93;;;1.10;;
12925;SDS011;6529;50.566;9.774;2023-04-01T07:10:46;2.97;;;1.20;;
12925;SDS011;6529;50.566;9.774;2023-04-01T07:13:21;2.67;;;1.20;;
12925;SDS011;6529;50.566;9.774;2023-04-01T07:19:10;1.90;;;0.97;;
12925;SDS011;6529;50.566;9.774;2023-04-01T07:21:46;3.30;;;1.70;;
12925;SDS011;6529;50.566;9.774;2023-04-01T07:24:25;1.53;;;1.10;;
12925;SDS011;6529;50.566;9.774;2023-04-01T07:26:55;2.00;;;1.10;;
12925;SDS011;6529;50.566;9.774;2023-04-01T07:29:22;1.33;;;1.10;;
12925;SDS011;6529;50.566;9.774;2023-04-01T07:42:24;2.37;;;0.97;;
12925;SDS011;6529;50.566;9.774;2023-04-01T08:01:22;2.03;;;1.20;;
12925;SDS011;6529;50.566;9.774;2023-04-01T08:06:28;1.43;;;1.07;;
12925;SDS011;6529;50.566;9.774;2023-04-01T08:09:09;2.87;;;0.80;;
12925;SDS011;6529;50.566;9.774;2023-04-01T08:12:07;3.27;;;1.13;;
12925;SDS011;6529;50.566;9.774;2023-04-01T08:17:53;1.47;;;1.00;;
12925;SDS011;6529;50.566;9.774;2023-04-01T08:23:22;1.80;;;1.40;;
12925;SDS011;6529;50.566;9.774;2023-04-01T08:26:06;1.67;;;1.17;;
12925;SDS011;6529;50.566;9.774;2023-04-01T08:28:41;1.67;;;1.07;;
12925;SDS011;6529;50.566;9.774;2023-04-01T08:31:25;1.37;;;0.90;;
12925;SDS011;6529;50.566;9.774;2023-04-01T08:33:55;2.20;;;0.80;;
12925;SDS011;6529;50.566;9.774;2023-04-01T08:36:23;1.67;;;1.00;;
12925;SDS011;6529;50.566;9.774;2023-04-01T08:38:59;1.40;;;1.00;;
12925;SDS011;6529;50.566;9.774;2023-04-01T09:08:27;3.30;;;1.97;;
12925;SDS011;6529;50.566;9.774;2023-04-01T09:17:01;1.10;;;0.80;;
12925;SDS011;6529;50.566;9.774;2023-04-01T09:27:48;1.70;;;1.23;;
12925;SDS011;6529;50.566;9.774;2023-04-01T09:57:45;1.50;;;0.93;;
12925;SDS011;6529;50.566;9.774;2023-04-01T10:04:04;1.00;;;0.90;;
12925;SDS011;6529;50.566;9.774;2023-04-01T10:12:54;1.10;;;0.90;;
12925;SDS011;6529;50.566;9.774;2023-04-01T10:21:14;1.30;;;1.20;;
12925;SDS011;6529;50.566;9.774;2023-04-01T10:24:00;1.87;;;1.20;;
12925;SDS011;6529;50.566;9.774;2023-04-01T10:51:55;0.80;;;0.80;;
12925;SDS011;6529;50.566;9.774;2023-04-01T11:03:03;1.10;;;0.93;;
12925;SDS011;6529;50.566;9.774;2023-04-01T11:06:15;0.80;;;0.80;;
12925;SDS011;6529;50.566;9.774;2023-04-01T11:11:28;1.33;;;1.00;;
12925;SDS011;6529;50.566;9.774;2023-04-01T11:40:14;0.57;;;0.53;;
12925;SDS011;6529;50.566;9.774;2023-04-01T11:42:53;0.80;;;0.80;;
12925;SDS011;6529;50.566;9.774;2023-04-01T11:48:23;1.13;;;0.97;;
12925;SDS011;6529;50.566;9.774;2023-04-01T11:51:02;0.93;;;0.93;;
12925;SDS011;6529;50.566;9.774;2023-04-01T11:57:03;1.10;;;1.00;;
12925;SDS011;6529;50.566;9.774;2023-04-01T12:10:21;1.23;;;0.90;;
12925;SDS011;6529;50.566;9.774;2023-04-01T12:15:54;0.80;;;0.80;;
12925;SDS011;6529;50.566;9.774;2023-04-01T12:18:32;1.33;;;0.80;;
12925;SDS011;6529;50.566;9.774;2023-04-01T12:30:20;0.93;;;0.80;;
12925;SDS011;6529;50.566;9.774;2023-04-01T12:36:09;0.80;;;0.80;;
12925;SDS011;6529;50.566;9.774;2023-04-01T12:41:21;2.20;;;0.90;;
12925;SDS011;6529;50.566;9.774;2023-04-01T13:10:20;0.80;;;0.80;;
12925;SDS011;6529;50.566;9.774;2023-04-01T13:16:29;0.90;;;0.90;;
12925;SDS011;6529;50.566;9.774;2023-04-01T13:18:58;1.07;;;0.90;;
12925;SDS011;6529;50.566;9.774;2023-04-01T13:29:35;1.33;;;1.23;;
12925;SDS011;6529;50.566;9.774;2023-04-01T13:35:21;1.10;;;1.00;;
12925;SDS011;6529;50.566;9.774;2023-04-01T13:43:28;1.40;;;1.30;;
12925;SDS011;6529;50.566;9.774;2023-04-01T13:59:50;1.53;;;1.43;;
12925;SDS011;6529;50.566;9.774;2023-04-01T14:13:27;1.20;;;1.10;;
12925;SDS011;6529;50.566;9.774;2023-04-01T14:35:55;1.20;;;1.10;;
12925;SDS011;6529;50.566;9.774;2023-04-01T14:38:42;1.53;;;1.43;;
12925;SDS011;6529;50.566;9.774;2023-04-01T14:44:17;2.10;;;1.90;;
12925;SDS011;6529;50.566;9.774;2023-04-01T14:47:08;2.70;;;2.50;;
12925;SDS011;6529;50.566;9.774;2023-04-01T14:50:07;3.70;;;1.77;;
12925;SDS011;6529;50.566;9.774;2023-04-01T14:52:39;2.73;;;2.33;;
12925;SDS011;6529;50.566;9.774;2023-04-01T14:55:20;2.20;;;2.00;;
12925;SDS011;6529;50.566;9.774;2023-04-01T14:58:12;3.50;;;3.20;;
12925;SDS011;6529;50.566;9.774;2023-04-01T15:00:41;5.07;;;4.43;;
12925;SDS011;6529;50.566;9.774;2023-04-01T15:03:14;1.30;;;1.20;;
12925;SDS011;6529;50.566;9.774;2023-04-01T15:09:32;2.00;;;1.70;;
12925;SDS011;6529;50.566;9.774;2023-04-01T15:31:40;2.37;;;1.40;;
12925;SDS011;6529;50.566;9.774;2023-04-01T15:49:51;2.17;;;1.90;;
12925;SDS011;6529;50.566;9.774;2023-04-01T15:55:27;3.30;;;3.00;;
12925;SDS011;6529;50.566;9.774;2023-04-01T16:00:31;2.30;;;1.67;;
12925;SDS011;6529;50.566;9.774;2023-04-01T16:03:17;1.73;;;1.60;;
12925;SDS011;6529;50.566;9.774;2023-04-01T16:06:01;1.60;;;1.50;;
12925;SDS011;6529;50.566;9.774;2023-04-01T16:08:54;2.00;;;1.80;;
12925;SDS011;6529;50.566;9.774;2023-04-01T16:14:57;2.60;;;2.40;;
12925;SDS011;6529;50.566;9.774;2023-04-01T16:20:22;2.27;;;1.70;;
12925;SDS011;6529;50.566;9.774;2023-04-01T16:23:26;2.40;;;2.20;;
12925;SDS011;6529;50.566;9.774;2023-04-01T16:26:08;2.27;;;2.03;;
12925;SDS011;6529;50.566;9.774;2023-04-01T16:31:33;2.57;;;2.37;;
12925;SDS011;6529;50.566;9.774;2023-04-01T16:34:56;3.80;;;2.30;;
12925;SDS011;6529;50.566;9.774;2023-04-01T16:43:26;2.00;;;1.90;;
12925;SDS011;6529;50.566;9.774;2023-04-01T16:45:30;2.77;;;2.50;;
12925;SDS011;6529;50.566;9.774;2023-04-01T16:48:15;2.47;;;1.80;;
12925;SDS011;6529;50.566;9.774;2023-04-01T16:51:00;3.53;;;2.73;;
12925;SDS011;6529;50.566;9.774;2023-04-01T16:53:41;12.73;;;6.37;;
12925;SDS011;6529;50.566;9.774;2023-04-01T16:56:11;7.70;;;4.43;;
12925;SDS011;6529;50.566;9.774;2023-04-01T16:59:02;14.50;;;7.27;;
12925;SDS011;6529;50.566;9.774;2023-04-01T17:01:40;16.17;;;7.40;;
12925;SDS011;6529;50.566;9.774;2023-04-01T17:04:34;22.97;;;10.03;;
12925;SDS011;6529;50.566;9.774;2023-04-01T17:15:58;14.67;;;6.47;;
12925;SDS011;6529;50.566;9.774;2023-04-01T17:26:46;13.43;;;6.33;;
12925;SDS011;6529;50.566;9.774;2023-04-01T17:32:37;26.07;;;9.13;;
12925;SDS011;6529;50.566;9.774;2023-04-01T17:35:19;10.37;;;4.37;;
12925;SDS011;6529;50.566;9.774;2023-04-01T17:43:12;5.60;;;3.20;;
12925;SDS011;6529;50.566;9.774;2023-04-01T17:46:02;7.43;;;3.70;;
12925;SDS011;6529;50.566;9.774;2023-04-01T17:48:57;3.97;;;2.37;;
12925;SDS011;6529;50.566;9.774;2023-04-01T17:51:41;12.67;;;4.50;;
12925;SDS011;6529;50.566;9.774;2023-04-01T17:56:55;13.63;;;4.73;;
12925;SDS011;6529;50.566;9.774;2023-04-01T18:25:37;4.67;;;2.47;;
12925;SDS011;6529;50.566;9.774;2023-04-01T18:31:14;12.77;;;5.90;;
12925;SDS011;6529;50.566;9.774;2023-04-01T18:33:55;6.23;;;3.30;;
12925;SDS011;6529;50.566;9.774;2023-04-01T18:44:42;5.10;;;2.60;;
12925;SDS011;6529;50.566;9.774;2023-04-01T18:53:17;2.80;;;1.83;;
12925;SDS011;6529;50.566;9.774;2023-04-01T18:56:02;2.40;;;1.83;;
12925;SDS011;6529;50.566;9.774;2023-04-01T19:01:04;4.17;;;2.67;;
12925;SDS011;6529;50.566;9.774;2023-04-01T19:06:34;3.80;;;2.57;;
12925;SDS011;6529;50.566;9.774;2023-04-01T19:22:34;3.20;;;2.20;;
12925;SDS011;6529;50.566;9.774;2023-04-01T19:25:32;4.83;;;2.90;;
12925;SDS011;6529;50.566;9.774;2023-04-01T19:30:56;2.83;;;2.10;;
12925;SDS011;6529;50.566;9.774;2023-04-01T19:33:47;2.87;;;2.57;;
12925;SDS011;6529;50.566;9.774;2023-04-01T19:36:18;3.27;;;2.23;;
12925;SDS011;6529;50.566;9.774;2023-04-01T19:52:41;5.63;;;3.10;;
12925;SDS011;6529;50.566;9.774;2023-04-01T19:57:54;5.17;;;3.23;;
12925;SDS011;6529;50.566;9.774;2023-04-01T20:00:29;5.43;;;3.40;;
12925;SDS011;6529;50.566;9.774;2023-04-01T20:19:11;2.83;;;2.30;;
12925;SDS011;6529;50.566;9.774;2023-04-01T20:21:46;3.13;;;2.27;;
12925;SDS011;6529;50.566;9.774;2023-04-01T20:24:21;4.17;;;2.67;;
12925;SDS011;6529;50.566;9.774;2023-04-01T20:26:58;5.40;;;3.27;;
12925;SDS011;6529;50.566;9.774;2023-04-01T20:37:47;16.07;;;6.07;;
12925;SDS011;6529;50.566;9.774;2023-04-01T20:40:32;21.73;;;6.90;;
12925;SDS011;6529;50.566;9.774;2023-04-01T20:45:45;13.00;;;5.10;;
12925;SDS011;6529;50.566;9.774;2023-04-01T20:51:15;15.63;;;6.50;;
12925;SDS011;6529;50.566;9.774;2023-04-01T21:01:52;6.27;;;4.17;;
12925;SDS011;6529;50.566;9.774;2023-04-01T21:04:30;14.30;;;7.17;;
12925;SDS011;6529;50.566;9.774;2023-04-01T21:07:20;15.63;;;7.73;;
12925;SDS011;6529;50.566;9.774;2023-04-01T21:21:20;12.33;;;7.37;;
12925;SDS011;6529;50.566;9.774;2023-04-01T21:46:22;8.33;;;6.37;;
12925;SDS011;6529;50.566;9.774;2023-04-01T22:09:16;5.77;;;4.93;;
12925;SDS011;6529;50.566;9.774;2023-04-01T22:18:05;6.37;;;5.17;;
12925;SDS011;6529;50.566;9.774;2023-04-01T22:20:59;5.67;;;5.07;;
12925;SDS011;6529;50.566;9.774;2023-04-01T22:29:05;6.37;;;5.07;;
12925;SDS011;6529;50.566;9.774;2023-04-01T22:34:11;5.17;;;4.50;;
12925;SDS011;6529;50.566;9.774;2023-04-01T22:36:57;4.63;;;4.20;;
12925;SDS011;6529;50.566;9.774;2023-04-01T22:47:40;5.87;;;5.10;;
12925;SDS011;6529;50.566;9.774;2023-04-01T22:50:18;6.10;;;5.30;;
12925;SDS011;6529;50.566;9.774;2023-04-01T22:52:46;7.07;;;5.97;;
12925;SDS011;6529;50.566;9.774;2023-04-01T23:00:43;6.80;;;6.07;;
12925;SDS011;6529;50.566;9.774;2023-04-01T23:05:54;6.03;;;5.40;;
12925;SDS011;6529;50.566;9.774;2023-04-01T23:11:06;6.90;;;5.43;;
12925;SDS011;6529;50.566;9.774;2023-04-01T23:13:52;8.43;;;5.80;;
12925;SDS011;6529;50.566;9.774;2023-04-01T23:16:30;7.00;;;5.23;;
12925;SDS011;6529;50.566;9.774;2023-04-01T23:22:13;9.20;;;7.30;;
12925;SDS011;6529;50.566;9.774;2023-04-01T23:24:50;9.90;;;7.70;;
12925;SDS011;6529;50.566;9.774;2023-04-01T23:29:48;10.23;;;7.77;;
12925;SDS011;6529;50.566;9.774;2023-04-01T23:32:15;8.77;;;7.03;;
12925;SDS011;6529;50.566;9.774;2023-04-01T23:34:50;8.30;;;7.10;;
12925;SDS011;6529;50.566;9.774;2023-04-01T23:37:17;9.90;;;7.83;;
12925;SDS011;6529;50.566;9.774;2023-04-01T23:39:45;13.53;;;9.27;;
12925;SDS011;6529;50.566;9.774;2023-04-01T23:44:45;11.17;;;8.90;;
12925;SDS011;6529;50.566;9.774;2023-04-01T23:47:17;16.17;;;10.20;;
12925;SDS011;6529;50.566;9.774;2023-04-01T23:52:27;11.43;;;8.37;;
12925;SDS011;6529;50.566;9.774;2023-04-01T23:57:34;8.17;;;7.10;;
